createdAt,value
2018-08-06T00:00:21.395Z,58.50
2018-08-06T00:02:50.146Z,58.50
2018-08-06T00:07:47.264Z,58.70
2018-08-06T00:10:18.437Z,58.70
2018-08-06T00:12:46.962Z,58.80
2018-08-06T00:15:15.938Z,58.80
2018-08-06T00:17:44.590Z,58.80
2018-08-06T00:20:13.940Z,58.90
2018-08-06T00:22:42.836Z,58.90
2018-08-06T00:25:12.627Z,58.90
2018-08-06T00:27:41.892Z,58.80
2018-08-06T00:30:13.738Z,58.80
2018-08-06T00:32:45.514Z,58.80
2018-08-06T00:35:14.499Z,58.80
2018-08-06T00:37:43.118Z,58.70
2018-08-06T00:40:13.202Z,58.70
2018-08-06T00:47:40.415Z,58.70
2018-08-06T00:50:09.229Z,58.70
2018-08-06T00:52:38.302Z,58.80
2018-08-06T00:55:08.971Z,59.10
2018-08-06T00:57:37.568Z,59.10
2018-08-06T01:00:08.248Z,59.10
2018-08-06T01:02:36.847Z,59.00
2018-08-06T01:05:06.571Z,59.10
2018-08-06T01:07:35.153Z,59.10
2018-08-06T01:10:05.103Z,59.30
2018-08-06T01:12:33.756Z,59.20
2018-08-06T01:15:02.330Z,59.60
2018-08-06T01:19:59.139Z,59.70
2018-08-06T01:22:27.729Z,59.70
2018-08-06T01:24:56.395Z,60.40
2018-08-06T01:27:24.961Z,59.70
2018-08-06T01:29:53.549Z,59.70
2018-08-06T01:34:50.415Z,60.40
2018-08-06T01:37:19.005Z,59.90
2018-08-06T01:42:15.826Z,59.90
2018-08-06T01:44:44.381Z,59.90
2018-08-06T01:47:13.924Z,59.90
2018-08-06T01:49:42.565Z,59.90
2018-08-06T01:54:39.328Z,60.40
2018-08-06T01:57:07.949Z,60.10
2018-08-06T01:59:36.642Z,60.10
2018-08-06T02:02:05.416Z,60.10
2018-08-06T02:04:33.866Z,60.20
2018-08-06T02:07:02.391Z,60.10
2018-08-06T02:09:30.898Z,60.30
2018-08-06T02:11:59.474Z,60.30
2018-08-06T02:14:27.945Z,60.40
2018-08-06T02:19:24.699Z,60.60
2018-08-06T02:21:53.233Z,60.60
2018-08-06T02:24:21.737Z,60.60
2018-08-06T02:26:50.275Z,60.60
2018-08-06T02:29:18.766Z,60.60
2018-08-06T02:31:47.268Z,60.70
2018-08-06T02:34:15.839Z,60.60
2018-08-06T02:36:44.396Z,60.70
2018-08-06T02:39:12.843Z,60.80
2018-08-06T02:41:41.362Z,60.80
2018-08-06T02:44:09.886Z,60.80
2018-08-06T02:46:38.404Z,60.80
2018-08-06T02:49:06.906Z,60.80
2018-08-06T02:51:35.455Z,60.80
2018-08-06T02:54:03.935Z,60.90
2018-08-06T02:56:32.458Z,60.90
2018-08-06T02:59:00.925Z,60.90
2018-08-06T03:01:29.461Z,60.90
2018-08-06T03:03:58.063Z,61.00
2018-08-06T03:06:26.609Z,61.00
2018-08-06T03:08:55.094Z,61.10
2018-08-06T03:11:23.681Z,61.10
2018-08-06T03:13:52.385Z,61.10
2018-08-06T03:16:20.878Z,61.20
2018-08-06T03:18:49.351Z,61.20
2018-08-06T03:21:17.827Z,61.30
2018-08-06T03:23:46.275Z,61.40
2018-08-06T03:26:14.833Z,61.40
2018-08-06T03:33:39.844Z,62.30
2018-08-06T03:36:08.390Z,61.40
2018-08-06T03:38:36.946Z,61.50
2018-08-06T03:41:05.491Z,61.50
2018-08-06T03:43:34.036Z,61.60
2018-08-06T03:48:30.771Z,61.50
2018-08-06T03:50:59.332Z,61.60
2018-08-06T03:53:27.897Z,61.60
2018-08-06T03:55:56.409Z,61.60
2018-08-06T03:58:24.959Z,61.60
2018-08-06T04:00:53.541Z,61.60
2018-08-06T04:05:50.199Z,61.80
2018-08-06T04:08:18.752Z,61.80
2018-08-06T04:10:47.450Z,61.90
2018-08-06T04:13:15.980Z,61.90
2018-08-06T04:15:44.458Z,62.00
2018-08-06T04:18:12.960Z,62.00
2018-08-06T04:20:41.489Z,62.10
2018-08-06T04:23:09.983Z,62.90
2018-08-06T04:28:34.743Z,62.20
2018-08-06T04:31:03.248Z,62.10
2018-08-06T04:33:31.826Z,62.10
2018-08-06T04:36:00.375Z,62.10
2018-08-06T04:40:57.378Z,62.10
2018-08-06T04:43:26.664Z,62.10
2018-08-06T04:45:55.515Z,62.10
2018-08-06T04:48:23.969Z,62.10
2018-08-06T04:50:52.448Z,62.30
2018-08-06T04:53:20.936Z,62.30
2018-08-06T04:55:49.477Z,62.40
2018-08-06T04:58:18.098Z,62.30
2018-08-06T05:00:46.889Z,62.40
2018-08-06T05:03:15.415Z,62.40
2018-08-06T05:05:43.931Z,62.50
2018-08-06T05:08:12.501Z,62.50
2018-08-06T05:10:41.079Z,62.60
2018-08-06T05:13:09.524Z,62.50
2018-08-06T05:15:38.029Z,62.50
2018-08-06T05:18:06.531Z,62.40
2018-08-06T05:20:36.164Z,62.50
2018-08-06T05:23:04.631Z,62.50
2018-08-06T05:25:33.142Z,62.60
2018-08-06T05:28:01.622Z,62.50
2018-08-06T05:30:30.092Z,63.10
2018-08-06T05:32:58.592Z,62.50
2018-08-06T05:46:53.532Z,62.40
2018-08-06T05:49:22.022Z,62.40
2018-08-06T05:51:50.497Z,62.40
2018-08-06T05:54:19.001Z,62.50
2018-08-06T05:56:47.584Z,62.40
2018-08-06T05:59:16.108Z,62.50
2018-08-06T06:01:44.654Z,62.50
2018-08-06T06:04:13.234Z,62.50
2018-08-06T06:06:41.732Z,62.30
2018-08-06T06:09:10.993Z,62.30
2018-08-06T06:11:39.906Z,62.20
2018-08-06T06:14:09.312Z,62.20
2018-08-06T06:16:38.496Z,62.20
2018-08-06T06:19:07.195Z,62.20
2018-08-06T06:21:35.910Z,62.10
2018-08-06T06:24:04.548Z,62.00
2018-08-06T06:26:33.043Z,62.00
2018-08-06T06:29:01.522Z,62.00
2018-08-06T06:31:30.015Z,62.00
2018-08-06T06:33:58.541Z,61.90
2018-08-06T06:36:27.581Z,61.90
2018-08-06T06:41:24.371Z,61.90
2018-08-06T06:43:52.872Z,61.90
2018-08-06T06:46:21.444Z,61.80
2018-08-06T06:48:50.051Z,61.80
2018-08-06T06:51:18.514Z,61.80
2018-08-06T06:53:47.005Z,61.70
2018-08-06T06:56:15.802Z,61.40
2018-08-06T06:58:44.402Z,61.30
2018-08-06T07:01:13.032Z,61.40
2018-08-06T07:03:41.757Z,61.60
2018-08-06T07:06:10.394Z,61.50
2018-08-06T07:08:39.224Z,61.50
2018-08-06T07:11:08.060Z,61.10
2018-08-06T07:13:36.703Z,61.10
2018-08-06T07:16:05.477Z,61.10
2018-08-06T07:18:34.071Z,61.20
2018-08-06T07:21:03.627Z,61.20
2018-08-06T07:23:32.205Z,61.30
2018-08-06T07:28:29.194Z,61.90
2018-08-06T07:30:57.747Z,61.60
2018-08-06T07:33:26.363Z,61.50
2018-08-06T07:35:54.931Z,61.60
2018-08-06T07:38:23.369Z,61.70
2018-08-06T07:40:53.473Z,61.70
2018-08-06T07:43:22.189Z,61.40
2018-08-06T07:45:50.684Z,61.30
2018-08-06T07:48:19.284Z,61.30
2018-08-06T07:53:15.956Z,61.30
2018-08-06T07:55:44.446Z,61.20
2018-08-06T07:58:12.928Z,61.10
2018-08-06T08:00:41.424Z,61.00
2018-08-06T08:03:09.981Z,61.00
2018-08-06T08:05:38.472Z,61.00
2018-08-06T08:08:06.947Z,60.40
2018-08-06T08:10:35.671Z,60.90
2018-08-06T08:13:04.346Z,60.90
2018-08-06T08:18:01.087Z,60.60
2018-08-06T08:20:29.696Z,60.50
2018-08-06T08:22:58.211Z,60.40
2018-08-06T08:25:26.816Z,60.20
2018-08-06T08:27:55.384Z,60.30
2018-08-06T08:30:23.936Z,60.10
2018-08-06T08:32:52.540Z,60.10
2018-08-06T08:37:49.192Z,59.90
2018-08-06T08:40:18.968Z,59.80
2018-08-06T08:42:47.494Z,59.70
2018-08-06T08:45:17.135Z,59.70
2018-08-06T08:47:46.188Z,59.70
2018-08-06T08:50:17.195Z,59.60
2018-08-06T08:52:45.742Z,59.60
2018-08-06T08:57:43.484Z,59.30
2018-08-06T09:00:14.501Z,59.10
2018-08-06T09:02:44.358Z,59.00
2018-08-06T09:05:13.141Z,58.90
2018-08-06T09:07:41.631Z,58.80
2018-08-06T09:10:11.827Z,58.90
2018-08-06T09:12:40.746Z,58.80
2018-08-06T09:15:12.501Z,58.70
2018-08-06T09:17:41.058Z,58.60
2018-08-06T09:20:09.873Z,58.50
2018-08-06T09:22:38.693Z,58.30
2018-08-06T09:25:09.115Z,58.20
2018-08-06T09:27:38.213Z,57.90
2018-08-06T09:30:12.846Z,58.00
2018-08-06T09:32:42.507Z,57.90
2018-08-06T09:35:10.973Z,57.70
2018-08-06T09:37:40.098Z,57.50
2018-08-06T09:40:11.098Z,57.30
2018-08-06T09:42:40.258Z,57.20
2018-08-06T09:45:10.927Z,57.10
2018-08-06T09:47:39.651Z,56.90
2018-08-06T09:52:37.997Z,56.80
2018-08-06T09:55:08.899Z,56.60
2018-08-06T10:00:18.072Z,56.40
2018-08-06T10:02:47.751Z,56.10
2018-08-06T10:07:44.769Z,56.10
2018-08-06T10:10:14.007Z,55.90
2018-08-06T10:12:43.468Z,55.70
2018-08-06T10:15:12.415Z,55.50
2018-08-06T10:17:41.502Z,55.30
2018-08-06T10:20:12.294Z,55.20
2018-08-06T10:22:41.270Z,54.80
2018-08-06T10:25:11.553Z,54.70
2018-08-06T10:27:40.818Z,54.60
2018-08-06T10:30:11.997Z,53.80
2018-08-06T10:35:10.080Z,53.70
2018-08-06T10:37:38.840Z,53.50
2018-08-06T10:40:12.530Z,53.40
2018-08-06T10:42:41.553Z,53.30
2018-08-06T10:45:12.711Z,53.20
2018-08-06T10:47:41.355Z,53.00
2018-08-06T10:50:10.217Z,53.50
2018-08-06T10:52:38.722Z,52.80
2018-08-06T10:55:08.035Z,52.70
2018-08-06T10:57:36.705Z,52.70
2018-08-06T11:00:08.616Z,52.70
2018-08-06T11:05:07.226Z,52.40
2018-08-06T11:07:35.635Z,52.30
2018-08-06T11:10:06.146Z,52.10
2018-08-06T11:12:34.697Z,52.00
2018-08-06T11:15:03.216Z,51.80
2018-08-06T11:20:00.168Z,51.70
2018-08-06T11:22:28.719Z,51.40
2018-08-06T11:24:57.175Z,51.30
2018-08-06T11:27:26.014Z,51.30
2018-08-06T11:29:54.681Z,51.10
2018-08-06T11:32:23.165Z,51.00
2018-08-06T11:34:51.709Z,50.80
2018-08-06T11:37:20.560Z,50.60
2018-08-06T11:39:49.009Z,50.50
2018-08-06T11:42:17.841Z,50.40
2018-08-06T11:44:46.356Z,50.40
2018-08-06T11:47:15.025Z,50.30
2018-08-06T11:49:43.713Z,50.20
2018-08-06T11:52:12.292Z,50.10
2018-08-06T11:54:40.980Z,50.00
2018-08-06T11:57:09.454Z,49.90
2018-08-06T11:59:37.909Z,49.80
2018-08-06T12:04:35.046Z,49.40
2018-08-06T12:07:03.622Z,49.20
2018-08-06T12:09:32.081Z,49.20
2018-08-06T12:12:00.708Z,49.30
2018-08-06T12:14:29.178Z,49.30
2018-08-06T12:16:57.852Z,49.20
2018-08-06T12:19:26.582Z,49.20
2018-08-06T12:21:56.001Z,49.10
2018-08-06T12:24:24.670Z,49.00
2018-08-06T12:26:53.195Z,48.90
2018-08-06T12:29:21.683Z,48.70
2018-08-06T12:31:50.171Z,48.60
2018-08-06T12:34:18.712Z,48.40
2018-08-06T12:36:47.239Z,48.30
2018-08-06T12:39:15.984Z,48.00
2018-08-06T12:41:44.514Z,47.80
2018-08-06T12:46:42.457Z,47.50
2018-08-06T12:49:11.233Z,47.60
2018-08-06T12:51:40.074Z,47.40
2018-08-06T12:54:09.338Z,45.30
2018-08-06T12:56:37.884Z,45.70
2018-08-06T12:59:06.432Z,45.90
2018-08-06T13:01:35.035Z,46.00
2018-08-06T13:04:03.542Z,46.00
2018-08-06T13:09:00.354Z,45.50
2018-08-06T13:11:28.955Z,45.60
2018-08-06T13:13:57.398Z,45.60
2018-08-06T13:16:25.873Z,45.50
2018-08-06T13:18:54.337Z,45.50
2018-08-06T13:21:22.895Z,45.50
2018-08-06T13:23:51.423Z,45.90
2018-08-06T13:28:48.078Z,45.10
2018-08-06T13:33:44.957Z,44.80
2018-08-06T13:36:13.488Z,44.50
2018-08-06T13:38:41.992Z,44.30
2018-08-06T13:41:10.504Z,44.20
2018-08-06T13:43:39.181Z,44.20
2018-08-06T13:46:08.076Z,44.20
2018-08-06T13:48:36.543Z,44.20
2018-08-06T13:51:05.119Z,44.20
2018-08-06T13:53:33.619Z,44.10
2018-08-06T13:56:02.144Z,44.00
2018-08-06T14:00:58.875Z,43.70
2018-08-06T14:03:27.392Z,43.60
2018-08-06T14:05:55.840Z,43.60
2018-08-06T14:08:24.308Z,43.40
2018-08-06T14:10:52.811Z,43.40
2018-08-06T14:13:21.968Z,43.40
2018-08-06T14:18:18.575Z,43.30
2018-08-06T14:20:47.104Z,43.10
2018-08-06T14:23:15.714Z,43.00
2018-08-06T14:25:44.185Z,42.90
2018-08-06T14:30:40.858Z,42.80
2018-08-06T14:35:37.569Z,42.70
2018-08-06T14:38:06.109Z,42.50
2018-08-06T14:43:02.783Z,42.50
2018-08-06T14:45:31.293Z,42.20
2018-08-06T14:47:59.795Z,42.00
2018-08-06T14:50:28.359Z,41.90
2018-08-06T14:52:56.879Z,41.60
2018-08-06T14:55:25.405Z,41.60
2018-08-06T14:57:55.975Z,41.50
2018-08-06T15:00:24.651Z,41.50
2018-08-06T15:02:53.936Z,41.50
2018-08-06T15:05:22.378Z,41.40
2018-08-06T15:07:50.888Z,41.40
2018-08-06T15:10:19.364Z,41.40
2018-08-06T15:15:17.250Z,41.20
2018-08-06T15:17:46.319Z,41.20
2018-08-06T15:20:16.055Z,41.30
2018-08-06T15:22:44.667Z,41.30
2018-08-06T15:25:15.662Z,41.30
2018-08-06T15:27:44.158Z,41.30
2018-08-06T15:30:13.129Z,41.20
2018-08-06T15:32:41.638Z,41.20
2018-08-06T15:35:10.928Z,41.10
2018-08-06T15:37:40.407Z,41.00
2018-08-06T15:40:13.295Z,41.00
2018-08-06T15:45:11.270Z,40.80
2018-08-06T15:47:40.109Z,40.70
2018-08-06T15:50:10.923Z,40.70
2018-08-06T15:52:39.450Z,40.60
2018-08-06T15:55:07.965Z,40.60
2018-08-06T15:57:36.451Z,40.40
2018-08-06T16:00:06.593Z,40.40
2018-08-06T16:05:03.292Z,40.40
2018-08-06T16:07:31.784Z,40.30
2018-08-06T16:10:00.243Z,40.30
2018-08-06T16:12:28.810Z,40.20
2018-08-06T16:14:57.248Z,40.20
2018-08-06T16:17:25.734Z,40.20
2018-08-06T16:19:54.205Z,40.10
2018-08-06T16:22:22.695Z,40.10
2018-08-06T16:24:51.965Z,40.10
2018-08-06T16:27:20.447Z,40.10
2018-08-06T16:32:17.110Z,40.10
2018-08-06T16:37:13.839Z,40.10
2018-08-06T16:39:42.312Z,40.10
2018-08-06T16:42:10.802Z,40.10
2018-08-06T16:44:39.305Z,40.10
2018-08-06T16:47:07.799Z,40.10
2018-08-06T16:49:36.704Z,40.00
2018-08-06T16:52:05.305Z,40.00
2018-08-06T16:54:33.795Z,40.00
2018-08-06T17:06:55.082Z,39.90
2018-08-06T17:09:23.592Z,39.50
2018-08-06T17:11:52.075Z,39.10
2018-08-06T17:16:48.788Z,39.60
2018-08-06T17:19:17.284Z,39.70
2018-08-06T17:21:45.886Z,39.70
2018-08-06T17:24:14.378Z,39.80
2018-08-06T17:26:42.913Z,39.80
2018-08-06T17:29:11.459Z,39.30
2018-08-06T17:31:39.925Z,39.90
2018-08-06T17:34:08.498Z,40.00
2018-08-06T17:36:36.984Z,40.00
2018-08-06T17:39:08.814Z,40.00
2018-08-06T17:41:40.742Z,40.00
2018-08-06T17:44:09.659Z,40.10
2018-08-06T17:46:38.135Z,40.10
2018-08-06T17:51:34.957Z,40.30
2018-08-06T17:54:03.504Z,40.40
2018-08-06T17:56:31.999Z,40.40
2018-08-06T17:59:00.571Z,40.30
2018-08-06T18:01:29.052Z,40.30
2018-08-06T18:06:25.988Z,40.50
2018-08-06T18:08:54.628Z,40.70
2018-08-06T18:11:22.999Z,40.80
2018-08-06T18:13:51.488Z,41.00
2018-08-06T18:16:19.987Z,41.10
2018-08-06T18:18:48.455Z,41.10
2018-08-06T18:23:45.172Z,41.50
2018-08-06T18:26:13.646Z,41.60
2018-08-06T18:28:42.160Z,41.70
2018-08-06T18:31:10.618Z,41.80
2018-08-06T18:33:39.159Z,41.90
2018-08-06T18:36:07.665Z,42.00
2018-08-06T18:38:36.140Z,42.10
2018-08-06T18:41:04.654Z,42.20
2018-08-06T18:43:33.128Z,42.40
2018-08-06T18:46:01.634Z,42.40
2018-08-06T18:48:30.101Z,42.50
2018-08-06T18:50:58.590Z,42.60
2018-08-06T18:53:27.046Z,42.80
2018-08-06T18:58:23.960Z,43.10
2018-08-06T19:00:52.483Z,43.30
2018-08-06T19:03:20.952Z,43.40
2018-08-06T19:05:49.563Z,43.60
2018-08-06T19:10:46.305Z,44.10
2018-08-06T19:13:20.222Z,44.00
2018-08-06T19:15:48.773Z,44.10
2018-08-06T19:18:22.593Z,44.30
2018-08-06T19:20:51.167Z,44.40
2018-08-06T19:23:19.688Z,44.40
2018-08-06T19:28:16.418Z,44.60
2018-08-06T19:30:50.419Z,44.80
2018-08-06T19:33:19.020Z,44.90
2018-08-06T19:35:47.553Z,44.90
2018-08-06T19:38:16.230Z,45.00
2018-08-06T19:40:44.755Z,45.10
2018-08-06T19:43:18.676Z,45.10
2018-08-06T19:45:47.219Z,45.20
2018-08-06T19:48:15.715Z,45.30
2018-08-06T19:53:14.853Z,46.00
2018-08-06T19:55:49.226Z,45.30
2018-08-06T19:58:17.926Z,45.40
2018-08-06T20:00:46.450Z,45.50
2018-08-06T20:05:43.239Z,45.60
2018-08-06T20:08:11.763Z,45.70
2018-08-06T20:10:40.475Z,45.70
2018-08-06T20:13:09.007Z,45.80
2018-08-06T20:15:37.510Z,45.80
2018-08-06T20:18:06.044Z,45.90
2018-08-06T20:20:34.520Z,46.10
2018-08-06T20:23:03.061Z,46.20
2018-08-06T20:25:31.593Z,46.20
2018-08-06T20:28:00.143Z,46.10
2018-08-06T20:30:28.646Z,46.10
2018-08-06T20:32:57.338Z,46.00
2018-08-06T20:35:25.866Z,46.10
2018-08-06T20:37:54.363Z,46.50
2018-08-06T20:40:22.995Z,46.70
2018-08-06T20:42:51.582Z,46.80
2018-08-06T20:45:21.183Z,46.80
2018-08-06T20:47:49.788Z,47.00
2018-08-06T20:50:19.812Z,47.00
2018-08-06T20:52:49.387Z,47.10
2018-08-06T20:55:17.947Z,47.20
2018-08-06T21:00:17.889Z,47.40
2018-08-06T21:02:47.162Z,47.50
2018-08-06T21:05:15.709Z,47.50
2018-08-06T21:07:44.167Z,47.60
2018-08-06T21:10:14.209Z,47.60
2018-08-06T21:12:42.836Z,47.70
2018-08-06T21:15:12.596Z,47.80
2018-08-06T21:17:41.075Z,47.80
2018-08-06T21:20:11.236Z,47.90
2018-08-06T21:22:39.907Z,48.10
2018-08-06T21:25:09.549Z,48.10
2018-08-06T21:27:38.326Z,48.10
2018-08-06T21:30:09.345Z,48.10
2018-08-06T21:32:38.167Z,48.10
2018-08-06T21:35:07.192Z,48.10
2018-08-06T21:37:35.660Z,48.20
2018-08-06T21:40:04.200Z,48.20
2018-08-06T21:42:32.734Z,48.10
2018-08-06T21:45:01.290Z,48.10
2018-08-06T21:47:29.787Z,48.00
2018-08-06T21:49:58.295Z,48.00
2018-08-06T21:52:26.752Z,48.60
2018-08-06T21:54:55.514Z,47.90
2018-08-06T21:57:24.037Z,47.90
2018-08-06T21:59:52.538Z,47.90
2018-08-06T22:02:21.028Z,48.00
2018-08-06T22:04:49.674Z,48.00
2018-08-06T22:07:18.199Z,48.00
2018-08-06T22:09:46.674Z,48.10
2018-08-06T22:12:15.187Z,48.10
2018-08-06T22:14:43.687Z,48.10
2018-08-06T22:17:12.154Z,48.10
2018-08-06T22:19:40.633Z,48.10
2018-08-06T22:22:09.737Z,48.10
2018-08-06T22:24:38.296Z,48.10
2018-08-06T22:27:06.885Z,48.00
2018-08-06T22:29:35.516Z,47.90
2018-08-06T22:32:04.133Z,47.90
2018-08-06T22:37:00.950Z,47.90
2018-08-06T22:39:29.510Z,47.80
2018-08-06T22:41:58.071Z,47.80
2018-08-06T22:44:26.650Z,47.70
2018-08-06T22:46:55.145Z,47.70
2018-08-06T22:51:51.894Z,47.90
2018-08-06T22:54:20.506Z,47.90
2018-08-06T22:56:51.642Z,47.90
2018-08-06T22:59:20.271Z,48.40
2018-08-06T23:01:48.720Z,47.80
2018-08-06T23:06:45.383Z,47.70
2018-08-06T23:11:42.354Z,47.80
2018-08-06T23:14:10.912Z,47.90
2018-08-06T23:16:39.437Z,48.00
2018-08-06T23:19:08.185Z,48.00
2018-08-06T23:21:36.970Z,47.90
2018-08-06T23:24:06.357Z,48.00
2018-08-06T23:26:34.901Z,48.10
2018-08-06T23:31:31.630Z,48.50
2018-08-06T23:34:00.192Z,48.10
2018-08-06T23:36:28.634Z,48.20
2018-08-06T23:38:57.316Z,48.10
2018-08-06T23:41:26.103Z,48.30
2018-08-06T23:43:54.719Z,48.20
2018-08-06T23:48:51.657Z,48.40
2018-08-06T23:51:20.167Z,48.40
2018-08-06T23:56:16.901Z,49.00
2018-08-06T23:58:45.422Z,48.60
